createdAt,value
2019-04-22T00:02:11.254Z,6.37
2019-04-22T00:04:50.922Z,8.63
2019-04-22T00:07:36.149Z,8.83
2019-04-22T00:10:06.301Z,6.43
2019-04-22T00:15:05.352Z,8.17
2019-04-22T00:20:11.532Z,8.50
2019-04-22T00:22:38.654Z,7.10
2019-04-22T00:25:14.438Z,10.47
2019-04-22T00:27:41.217Z,7.60
2019-04-22T00:30:22.034Z,8.53
2019-04-22T00:32:41.879Z,7.20
2019-04-22T00:35:19.552Z,8.70
2019-04-22T00:37:54.162Z,7.87
2019-04-22T00:40:21.037Z,7.93
2019-04-22T00:42:53.068Z,7.07
2019-04-22T00:45:26.973Z,8.17
2019-04-22T00:47:51.781Z,8.07
2019-04-22T00:50:23.776Z,6.60
2019-04-22T00:53:02.590Z,6.27
2019-04-22T00:55:24.769Z,6.70
2019-04-22T00:57:54.199Z,6.40
2019-04-22T01:00:24.693Z,10.97
2019-04-22T01:02:54.408Z,8.37
2019-04-22T01:05:27.305Z,11.13
2019-04-22T01:08:04.017Z,8.20
2019-04-22T01:10:33.841Z,7.70
2019-04-22T01:12:56.969Z,10.67
2019-04-22T01:15:31.943Z,8.43
2019-04-22T01:17:57.899Z,9.37
2019-04-22T01:20:58.933Z,8.27
2019-04-22T01:23:02.088Z,10.17
2019-04-22T01:25:24.933Z,10.70
2019-04-22T01:27:55.883Z,7.30
2019-04-22T01:30:22.150Z,7.27
2019-04-22T01:32:44.910Z,7.67
2019-04-22T01:35:26.294Z,8.87
2019-04-22T01:37:54.172Z,9.27
2019-04-22T01:40:39.117Z,11.20
2019-04-22T01:43:08.668Z,8.70
2019-04-22T01:45:39.262Z,7.63
2019-04-22T01:48:15.531Z,7.73
2019-04-22T01:50:36.856Z,7.03
2019-04-22T01:53:13.417Z,8.40
2019-04-22T01:55:44.163Z,7.63
2019-04-22T01:58:09.004Z,6.83
2019-04-22T02:00:44.960Z,8.07
2019-04-22T02:03:23.589Z,8.53
2019-04-22T02:05:46.761Z,7.53
2019-04-22T02:08:25.506Z,6.57
2019-04-22T02:10:50.862Z,7.27
2019-04-22T02:13:15.280Z,7.57
2019-04-22T02:15:52.442Z,8.80
2019-04-22T02:18:39.319Z,7.67
2019-04-22T02:24:39.771Z,6.50
2019-04-22T02:27:35.215Z,8.07
2019-04-22T02:30:13.937Z,7.27
2019-04-22T02:33:30.644Z,6.10
2019-04-22T02:38:59.386Z,8.67
2019-04-22T02:41:43.840Z,10.57
2019-04-22T02:44:12.938Z,6.83
2019-04-22T02:49:53.444Z,8.27
2019-04-22T02:55:02.966Z,8.93
2019-04-22T03:00:46.684Z,9.33
2019-04-22T03:06:24.390Z,9.30
2019-04-22T03:08:53.760Z,7.50
2019-04-22T03:14:30.309Z,7.43
2019-04-22T03:17:25.362Z,7.37
2019-04-22T03:23:05.808Z,7.97
2019-04-22T03:28:49.713Z,8.77
2019-04-22T03:32:21.098Z,9.90
2019-04-22T03:35:20.341Z,7.33
2019-04-22T03:37:35.841Z,8.30
2019-04-22T03:43:23.935Z,7.27
2019-04-22T03:46:06.213Z,9.60
2019-04-22T03:48:47.319Z,7.00
2019-04-22T03:51:42.088Z,9.57
2019-04-22T03:54:26.454Z,7.97
2019-04-22T04:05:24.255Z,9.33
2019-04-22T04:15:38.439Z,6.53
2019-04-22T04:18:39.200Z,9.60
2019-04-22T04:24:19.791Z,8.23
2019-04-22T04:27:06.733Z,8.83
2019-04-22T04:29:51.474Z,9.33
2019-04-22T04:32:36.454Z,9.73
2019-04-22T04:38:24.342Z,9.23
2019-04-22T04:40:31.458Z,8.17
2019-04-22T04:42:58.539Z,9.83
2019-04-22T04:51:28.682Z,7.93
2019-04-22T04:53:41.951Z,7.13
2019-04-22T04:59:16.835Z,8.03
2019-04-22T05:02:09.934Z,8.17
2019-04-22T05:04:59.536Z,7.70
2019-04-22T05:07:38.359Z,6.73
2019-04-22T05:10:16.520Z,6.57
2019-04-22T05:13:35.221Z,7.93
2019-04-22T05:19:02.471Z,7.63
2019-04-22T05:21:40.212Z,11.17
2019-04-22T05:24:29.723Z,8.90
2019-04-22T05:33:02.879Z,8.77
2019-04-22T05:35:54.799Z,10.20
2019-04-22T05:38:49.812Z,7.70
2019-04-22T05:44:03.566Z,7.63
2019-04-22T05:46:46.201Z,9.00
2019-04-22T05:52:12.280Z,7.60
2019-04-22T05:54:38.541Z,7.97
2019-04-22T05:57:14.438Z,9.73
2019-04-22T06:00:06.368Z,9.17
2019-04-22T06:06:07.794Z,9.83
2019-04-22T06:08:51.058Z,9.20
2019-04-22T06:11:33.872Z,8.50
2019-04-22T06:14:31.087Z,12.00
2019-04-22T06:17:24.682Z,12.17
2019-04-22T06:20:09.205Z,8.40
2019-04-22T06:23:06.100Z,10.83
2019-04-22T06:26:07.987Z,9.97
2019-04-22T06:31:49.819Z,7.70
2019-04-22T06:34:27.033Z,7.10
2019-04-22T06:40:10.591Z,9.47
2019-04-22T06:42:58.034Z,9.60
2019-04-22T06:45:39.695Z,8.77
2019-04-22T06:48:33.134Z,11.20
2019-04-22T06:51:19.882Z,10.67
2019-04-22T06:54:14.771Z,8.70
2019-04-22T06:57:02.091Z,9.33
2019-04-22T06:59:52.046Z,11.47
2019-04-22T07:02:58.583Z,7.67
2019-04-22T07:05:18.089Z,9.43
2019-04-22T07:08:05.584Z,16.87
2019-04-22T07:10:50.638Z,10.27
2019-04-22T07:13:42.929Z,11.00
2019-04-22T07:16:39.429Z,8.93
2019-04-22T07:19:24.965Z,10.70
2019-04-22T07:22:11.222Z,10.60
2019-04-22T07:24:58.286Z,8.70
2019-04-22T07:27:52.115Z,9.83
2019-04-22T07:30:41.118Z,8.07
2019-04-22T07:36:42.127Z,8.33
2019-04-22T07:39:10.369Z,9.33
2019-04-22T07:41:59.211Z,8.93
2019-04-22T07:44:51.247Z,9.67
2019-04-22T07:47:44.422Z,8.73
2019-04-22T07:50:47.531Z,7.83
2019-04-22T07:53:18.196Z,7.20
2019-04-22T07:56:11.860Z,6.47
2019-04-22T07:59:05.725Z,6.40
2019-04-22T08:01:50.932Z,6.93
2019-04-22T08:04:56.024Z,6.47
2019-04-22T08:07:31.646Z,7.03
2019-04-22T08:13:11.736Z,7.67
2019-04-22T08:18:45.631Z,6.97
2019-04-22T08:21:45.486Z,5.53
2019-04-22T08:24:35.928Z,6.73
2019-04-22T08:27:15.512Z,6.70
2019-04-22T08:30:13.909Z,7.10
2019-04-22T08:33:04.783Z,7.03
2019-04-22T08:38:47.139Z,5.20
2019-04-22T08:44:28.235Z,7.13
2019-04-22T08:52:35.407Z,8.43
2019-04-22T08:55:17.941Z,6.23
2019-04-22T09:00:51.621Z,6.53
2019-04-22T09:06:11.272Z,5.80
2019-04-22T09:08:54.060Z,5.67
2019-04-22T09:14:15.615Z,5.73
2019-04-22T09:17:04.095Z,4.90
2019-04-22T09:19:44.104Z,5.47
2019-04-22T09:22:21.823Z,5.80
2019-04-22T09:24:55.213Z,5.37
2019-04-22T09:27:36.919Z,6.67
2019-04-22T09:30:20.325Z,6.43
2019-04-22T09:33:11.128Z,5.80
2019-04-22T09:36:00.095Z,10.47
2019-04-22T09:41:40.104Z,6.00
2019-04-22T09:44:34.754Z,7.07
2019-04-22T09:47:14.675Z,5.23
2019-04-22T09:49:53.064Z,6.33
2019-04-22T09:52:35.836Z,5.77
2019-04-22T09:55:21.484Z,6.33
2019-04-22T09:58:16.287Z,6.57
2019-04-22T10:04:16.051Z,5.73
2019-04-22T10:07:04.301Z,6.37
2019-04-22T10:12:42.632Z,7.93
2019-04-22T10:15:16.469Z,5.63
2019-04-22T10:17:47.415Z,5.37
2019-04-22T10:20:38.679Z,5.73
2019-04-22T10:23:25.291Z,5.43
2019-04-22T10:26:19.580Z,6.97
2019-04-22T10:29:05.922Z,4.70
2019-04-22T10:31:55.564Z,4.20
2019-04-22T10:37:28.167Z,5.97
2019-04-22T10:40:36.413Z,7.93
2019-04-22T10:43:25.406Z,5.33
2019-04-22T10:46:13.851Z,5.27
2019-04-22T10:49:04.248Z,5.13
2019-04-22T10:51:46.566Z,4.27
2019-04-22T10:54:27.389Z,5.37
2019-04-22T10:59:50.411Z,6.13
2019-04-22T11:05:14.442Z,5.43
2019-04-22T11:08:00.835Z,5.97
2019-04-22T11:10:56.372Z,5.20
2019-04-22T11:16:03.672Z,4.70
2019-04-22T11:18:45.797Z,4.73
2019-04-22T11:21:27.422Z,7.47
2019-04-22T11:24:08.559Z,5.53
2019-04-22T11:26:49.402Z,4.87
2019-04-22T11:29:31.808Z,6.07
2019-04-22T11:32:12.979Z,5.60
2019-04-22T11:34:53.918Z,5.40
2019-04-22T11:40:25.359Z,6.03
2019-04-22T11:43:01.781Z,6.20
2019-04-22T11:45:43.217Z,4.70
2019-04-22T11:48:24.417Z,6.77
2019-04-22T11:51:06.106Z,4.47
2019-04-22T11:53:47.063Z,7.27
2019-04-22T11:56:29.352Z,6.10
2019-04-22T11:59:10.928Z,4.70
2019-04-22T12:01:52.938Z,5.87
2019-04-22T12:04:22.135Z,4.47
2019-04-22T12:07:10.888Z,4.20
2019-04-22T12:09:59.775Z,4.03
2019-04-22T12:12:50.103Z,3.63
2019-04-22T12:15:38.929Z,4.30
2019-04-22T12:18:27.172Z,3.50
2019-04-22T12:21:15.412Z,4.37
2019-04-22T12:24:03.629Z,4.33
2019-04-22T12:26:52.724Z,4.80
2019-04-22T12:30:01.041Z,2.93
2019-04-22T12:32:50.541Z,3.37
2019-04-22T12:35:39.067Z,6.57
2019-04-22T12:38:27.428Z,5.83
2019-04-22T12:41:16.477Z,8.40
2019-04-22T12:44:05.596Z,2.57
2019-04-22T12:46:54.470Z,4.30
2019-04-22T12:49:46.959Z,2.40
2019-04-22T12:55:48.187Z,5.83
2019-04-22T12:58:36.256Z,3.93
2019-04-22T13:01:17.129Z,2.63
2019-04-22T13:04:05.166Z,8.60
2019-04-22T13:06:42.005Z,4.00
2019-04-22T13:09:23.417Z,3.87
2019-04-22T13:12:04.178Z,2.50
2019-04-22T13:14:34.799Z,2.50
2019-04-22T13:17:23.299Z,5.13
2019-04-22T13:20:15.075Z,5.70
2019-04-22T13:23:02.205Z,3.90
2019-04-22T13:25:52.667Z,2.27
2019-04-22T13:28:23.008Z,2.93
2019-04-22T13:30:54.465Z,5.37
2019-04-22T13:33:43.153Z,2.60
2019-04-22T13:36:32.835Z,5.37
2019-04-22T13:39:20.996Z,6.47
2019-04-22T13:42:12.506Z,3.10
2019-04-22T13:45:00.169Z,2.00
2019-04-22T13:48:02.968Z,3.17
2019-04-22T13:54:36.850Z,2.13
2019-04-22T13:56:22.258Z,4.93
2019-04-22T13:58:58.898Z,2.20
2019-04-22T14:04:36.732Z,3.07
2019-04-22T14:10:00.253Z,3.13
2019-04-22T14:12:42.534Z,2.33
2019-04-22T14:15:24.335Z,2.33
2019-04-22T14:18:05.518Z,2.40
2019-04-22T14:20:46.942Z,6.37
2019-04-22T14:23:28.649Z,2.63
2019-04-22T14:26:11.161Z,3.60
2019-04-22T14:28:41.571Z,5.87
2019-04-22T14:31:30.752Z,3.20
2019-04-22T14:34:20.799Z,5.57
2019-04-22T14:37:09.951Z,4.03
2019-04-22T14:40:00.634Z,2.03
2019-04-22T14:43:10.434Z,5.07
2019-04-22T14:46:07.084Z,2.73
2019-04-22T14:48:49.867Z,3.47
2019-04-22T14:51:39.181Z,5.60
2019-04-22T14:54:22.650Z,3.10
2019-04-22T14:56:58.986Z,3.23
2019-04-22T14:59:48.312Z,4.50
2019-04-22T15:02:31.944Z,4.03
2019-04-22T15:05:14.352Z,3.90
2019-04-22T15:07:55.086Z,2.77
2019-04-22T15:13:18.381Z,3.27
2019-04-22T15:16:25.665Z,8.77
2019-04-22T15:19:25.766Z,6.27
2019-04-22T15:22:08.344Z,5.20
2019-04-22T15:24:50.231Z,3.43
2019-04-22T15:27:31.208Z,3.33
2019-04-22T15:30:12.367Z,5.00
2019-04-22T15:32:53.755Z,5.07
2019-04-22T15:38:17.444Z,2.90
2019-04-22T15:40:58.986Z,2.50
2019-04-22T15:43:39.635Z,4.77
2019-04-22T15:46:09.838Z,4.67
2019-04-22T15:48:59.926Z,2.93
2019-04-22T15:51:29.140Z,4.50
2019-04-22T15:54:19.267Z,2.90
2019-04-22T15:57:08.900Z,5.17
2019-04-22T16:00:14.758Z,6.70
2019-04-22T16:02:47.835Z,3.67
2019-04-22T16:05:37.452Z,5.17
2019-04-22T16:08:26.736Z,3.50
2019-04-22T16:11:15.918Z,4.53
2019-04-22T16:14:06.428Z,3.77
2019-04-22T16:16:56.404Z,4.37
2019-04-22T16:19:45.360Z,4.73
2019-04-22T16:22:55.035Z,5.50
2019-04-22T16:29:05.297Z,4.30
2019-04-22T16:31:55.597Z,7.67
2019-04-22T16:34:45.788Z,3.23
2019-04-22T16:37:34.781Z,4.43
2019-04-22T16:40:24.996Z,3.13
2019-04-22T16:43:14.137Z,3.03
2019-04-22T16:46:03.355Z,5.30
2019-04-22T16:48:53.702Z,3.03
2019-04-22T16:51:42.286Z,7.60
2019-04-22T16:54:32.820Z,3.37
2019-04-22T16:57:21.920Z,3.53
2019-04-22T17:00:13.117Z,7.07
2019-04-22T17:03:22.502Z,6.77
2019-04-22T17:06:23.439Z,3.27
2019-04-22T17:09:06.704Z,2.90
2019-04-22T17:14:27.228Z,5.50
2019-04-22T17:16:50.500Z,4.33
2019-04-22T17:19:39.606Z,3.03
2019-04-22T17:22:08.718Z,2.73
2019-04-22T17:24:58.163Z,4.20
2019-04-22T17:27:28.752Z,6.47
2019-04-22T17:30:17.253Z,3.77
2019-04-22T17:33:05.463Z,4.70
2019-04-22T17:35:36.030Z,3.70
2019-04-22T17:38:36.271Z,5.63
2019-04-22T17:41:24.287Z,8.77
2019-04-22T17:44:48.733Z,3.33
2019-04-22T17:47:38.358Z,2.63
2019-04-22T17:53:46.434Z,2.77
2019-04-22T17:56:33.701Z,4.23
2019-04-22T17:59:20.372Z,4.83
2019-04-22T18:02:06.766Z,2.70
2019-04-22T18:04:48.100Z,3.83
2019-04-22T18:07:43.040Z,4.50
2019-04-22T18:13:02.022Z,5.23
2019-04-22T18:15:48.719Z,4.40
2019-04-22T18:18:36.968Z,3.67
2019-04-22T18:21:23.207Z,3.80
2019-04-22T18:24:05.638Z,4.00
2019-04-22T18:27:17.044Z,4.17
2019-04-22T18:29:52.037Z,4.20
2019-04-22T18:32:47.137Z,5.00
2019-04-22T18:35:33.976Z,6.33
2019-04-22T18:38:10.988Z,7.87
2019-04-22T18:40:54.511Z,4.93
2019-04-22T18:43:47.893Z,5.47
2019-04-22T18:46:36.976Z,6.00
2019-04-22T18:49:21.639Z,6.00
2019-04-22T18:52:31.881Z,6.00
2019-04-22T18:55:38.814Z,4.90
2019-04-22T18:58:24.676Z,7.40
2019-04-22T19:04:19.966Z,6.53
2019-04-22T19:07:24.318Z,7.13
2019-04-22T19:10:10.616Z,5.37
2019-04-22T19:15:33.058Z,6.03
2019-04-22T19:18:18.187Z,5.03
2019-04-22T19:26:32.408Z,7.57
2019-04-22T19:31:45.529Z,4.83
2019-04-22T19:37:10.828Z,6.97
2019-04-22T19:48:03.667Z,6.53
2019-04-22T19:50:52.939Z,8.00
2019-04-22T19:53:19.505Z,6.53
2019-04-22T19:55:48.183Z,7.10
2019-04-22T20:01:38.635Z,6.83
2019-04-22T20:07:27.811Z,7.77
2019-04-22T20:10:16.212Z,8.37
2019-04-22T20:12:53.084Z,8.13
2019-04-22T20:15:34.504Z,9.70
2019-04-22T20:21:17.946Z,9.33
2019-04-22T20:23:53.715Z,9.03
2019-04-22T20:26:32.861Z,7.57
2019-04-22T20:29:31.085Z,8.17
2019-04-22T20:32:18.781Z,8.00
2019-04-22T20:35:09.279Z,10.43
2019-04-22T20:37:57.938Z,10.17
2019-04-22T20:40:42.618Z,8.87
2019-04-22T20:43:40.334Z,10.63
2019-04-22T20:46:24.259Z,8.40
2019-04-22T20:49:15.262Z,10.27
2019-04-22T20:52:08.260Z,11.53
2019-04-22T20:54:50.976Z,10.60
2019-04-22T20:57:50.127Z,11.07
2019-04-22T21:00:34.049Z,11.47
2019-04-22T21:03:16.088Z,12.57
2019-04-22T21:06:11.548Z,15.77
2019-04-22T21:09:01.141Z,18.97
2019-04-22T21:11:34.346Z,15.77
2019-04-22T21:14:21.304Z,20.07
2019-04-22T21:17:10.241Z,15.70
2019-04-22T21:19:43.348Z,24.67
2019-04-22T21:22:08.057Z,14.63
2019-04-22T21:24:53.644Z,14.40
2019-04-22T21:27:51.160Z,17.20
2019-04-22T21:30:34.250Z,14.73
2019-04-22T21:33:18.623Z,16.07
2019-04-22T21:36:23.540Z,13.70
2019-04-22T21:39:05.486Z,18.03
2019-04-22T21:41:52.497Z,15.30
2019-04-22T21:44:45.324Z,17.17
2019-04-22T21:50:54.283Z,14.83
2019-04-22T21:53:28.676Z,13.63
2019-04-22T21:56:29.038Z,17.17
2019-04-22T21:59:07.958Z,18.77
2019-04-22T22:01:56.910Z,17.97
2019-04-22T22:04:25.059Z,18.10
2019-04-22T22:06:50.163Z,15.73
2019-04-22T22:09:43.959Z,18.20
2019-04-22T22:12:13.165Z,16.53
2019-04-22T22:14:46.373Z,20.43
2019-04-22T22:17:31.043Z,16.47
2019-04-22T22:20:20.790Z,18.90
2019-04-22T22:23:00.323Z,17.27
2019-04-22T22:25:43.760Z,18.20
2019-04-22T22:31:10.390Z,20.27
2019-04-22T22:33:40.155Z,16.63
2019-04-22T22:36:23.739Z,17.77
2019-04-22T22:39:08.634Z,19.00
2019-04-22T22:41:45.906Z,19.53
2019-04-22T22:44:39.215Z,21.87
2019-04-22T22:47:39.413Z,20.90
2019-04-22T22:50:30.235Z,17.83
2019-04-22T22:56:16.062Z,17.03
2019-04-22T23:01:54.521Z,18.57
2019-04-22T23:04:54.519Z,21.90
2019-04-22T23:07:40.940Z,17.30
2019-04-22T23:10:17.591Z,18.80
2019-04-22T23:12:53.811Z,21.57
2019-04-22T23:15:39.003Z,22.90
2019-04-22T23:18:12.156Z,20.50
2019-04-22T23:21:01.458Z,19.00
2019-04-22T23:24:12.933Z,20.63
2019-04-22T23:30:15.985Z,23.27
2019-04-22T23:33:09.902Z,20.93
2019-04-22T23:44:14.232Z,23.70
2019-04-22T23:47:11.207Z,18.43
2019-04-22T23:50:09.145Z,21.60
2019-04-22T23:53:02.259Z,22.83
2019-04-22T23:55:33.367Z,24.43
2019-04-22T23:58:38.289Z,21.50
